sensor_id;sensor_type;location;lat;lon;timestamp;P1;durP1;ratioP1;P2;durP2;ratioP2
8831;SDS011;4452;50.756;4.472;2023-03-15T00:00:51;14.95;;;5.20;;
8831;SDS011;4452;50.756;4.472;2023-03-15T00:03:18;9.70;;;3.70;;
8831;SDS011;4452;50.756;4.472;2023-03-15T00:05:45;6.88;;;3.30;;
8831;SDS011;4452;50.756;4.472;2023-03-15T00:08:12;4.47;;;3.00;;
8831;SDS011;4452;50.756;4.472;2023-03-15T00:10:40;9.25;;;4.53;;
8831;SDS011;4452;50.756;4.472;2023-03-15T00:13:06;4.78;;;3.22;;
8831;SDS011;4452;50.756;4.472;2023-03-15T00:15:33;14.63;;;3.55;;
8831;SDS011;4452;50.756;4.472;2023-03-15T00:17:58;6.22;;;3.33;;
8831;SDS011;4452;50.756;4.472;2023-03-15T00:20:27;14.85;;;4.45;;
8831;SDS011;4452;50.756;4.472;2023-03-15T00:22:53;6.03;;;3.65;;
8831;SDS011;4452;50.756;4.472;2023-03-15T00:25:19;6.72;;;3.55;;
8831;SDS011;4452;50.756;4.472;2023-03-15T00:27:45;11.70;;;3.35;;
8831;SDS011;4452;50.756;4.472;2023-03-15T00:30:11;7.85;;;3.35;;
8831;SDS011;4452;50.756;4.472;2023-03-15T00:32:36;9.13;;;3.38;;
8831;SDS011;4452;50.756;4.472;2023-03-15T00:35:02;9.80;;;3.22;;
8831;SDS011;4452;50.756;4.472;2023-03-15T00:37:29;10.35;;;3.05;;
8831;SDS011;4452;50.756;4.472;2023-03-15T00:39:55;8.25;;;3.30;;
8831;SDS011;4452;50.756;4.472;2023-03-15T00:42:21;9.57;;;3.35;;
8831;SDS011;4452;50.756;4.472;2023-03-15T00:44:52;8.05;;;2.65;;
8831;SDS011;4452;50.756;4.472;2023-03-15T00:47:21;9.85;;;3.10;;
8831;SDS011;4452;50.756;4.472;2023-03-15T00:49:46;3.83;;;2.03;;
8831;SDS011;4452;50.756;4.472;2023-03-15T00:52:12;12.93;;;3.67;;
8831;SDS011;4452;50.756;4.472;2023-03-15T00:54:38;14.13;;;3.40;;
8831;SDS011;4452;50.756;4.472;2023-03-15T00:57:04;9.25;;;3.38;;
8831;SDS011;4452;50.756;4.472;2023-03-15T00:59:30;3.00;;;2.08;;
8831;SDS011;4452;50.756;4.472;2023-03-15T01:02:00;5.70;;;2.78;;
8831;SDS011;4452;50.756;4.472;2023-03-15T01:04:26;9.63;;;3.15;;
8831;SDS011;4452;50.756;4.472;2023-03-15T01:06:52;11.32;;;3.35;;
8831;SDS011;4452;50.756;4.472;2023-03-15T01:09:17;8.52;;;3.45;;
8831;SDS011;4452;50.756;4.472;2023-03-15T01:11:43;8.68;;;3.90;;
8831;SDS011;4452;50.756;4.472;2023-03-15T01:14:09;4.82;;;2.80;;
8831;SDS011;4452;50.756;4.472;2023-03-15T01:16:34;6.63;;;3.45;;
8831;SDS011;4452;50.756;4.472;2023-03-15T01:19:00;6.03;;;3.17;;
8831;SDS011;4452;50.756;4.472;2023-03-15T01:21:26;4.93;;;2.33;;
8831;SDS011;4452;50.756;4.472;2023-03-15T01:23:52;3.42;;;2.20;;
8831;SDS011;4452;50.756;4.472;2023-03-15T01:26:18;5.63;;;2.88;;
8831;SDS011;4452;50.756;4.472;2023-03-15T01:28:44;10.32;;;3.50;;
8831;SDS011;4452;50.756;4.472;2023-03-15T01:31:21;7.90;;;2.50;;
8831;SDS011;4452;50.756;4.472;2023-03-15T01:33:49;3.40;;;2.60;;
8831;SDS011;4452;50.756;4.472;2023-03-15T01:36:15;11.73;;;2.67;;
8831;SDS011;4452;50.756;4.472;2023-03-15T01:38:41;5.10;;;2.35;;
8831;SDS011;4452;50.756;4.472;2023-03-15T01:41:07;6.68;;;3.10;;
8831;SDS011;4452;50.756;4.472;2023-03-15T01:43:33;4.88;;;2.45;;
8831;SDS011;4452;50.756;4.472;2023-03-15T01:46:04;4.22;;;2.50;;
8831;SDS011;4452;50.756;4.472;2023-03-15T01:48:54;3.70;;;2.50;;
8831;SDS011;4452;50.756;4.472;2023-03-15T01:51:49;3.10;;;2.13;;
8831;SDS011;4452;50.756;4.472;2023-03-15T01:57:44;6.47;;;3.13;;
8831;SDS011;4452;50.756;4.472;2023-03-15T02:00:14;7.93;;;2.75;;
8831;SDS011;4452;50.756;4.472;2023-03-15T02:02:44;7.85;;;3.50;;
8831;SDS011;4452;50.756;4.472;2023-03-15T02:05:18;6.30;;;2.88;;
8831;SDS011;4452;50.756;4.472;2023-03-15T02:07:48;8.27;;;3.20;;
8831;SDS011;4452;50.756;4.472;2023-03-15T02:10:16;12.60;;;3.95;;
8831;SDS011;4452;50.756;4.472;2023-03-15T02:12:49;11.27;;;3.30;;
8831;SDS011;4452;50.756;4.472;2023-03-15T02:15:17;3.97;;;3.35;;
8831;SDS011;4452;50.756;4.472;2023-03-15T02:17:44;7.85;;;4.18;;
8831;SDS011;4452;50.756;4.472;2023-03-15T02:22:54;6.05;;;4.13;;
8831;SDS011;4452;50.756;4.472;2023-03-15T02:27:52;8.50;;;4.80;;
8831;SDS011;4452;50.756;4.472;2023-03-15T02:30:19;10.73;;;5.03;;
8831;SDS011;4452;50.756;4.472;2023-03-15T02:32:45;11.48;;;5.22;;
8831;SDS011;4452;50.756;4.472;2023-03-15T02:35:10;12.48;;;5.45;;
8831;SDS011;4452;50.756;4.472;2023-03-15T02:37:36;13.73;;;6.53;;
8831;SDS011;4452;50.756;4.472;2023-03-15T02:40:05;10.52;;;5.35;;
8831;SDS011;4452;50.756;4.472;2023-03-15T02:42:40;17.42;;;5.47;;
8831;SDS011;4452;50.756;4.472;2023-03-15T02:45:06;10.98;;;5.30;;
8831;SDS011;4452;50.756;4.472;2023-03-15T02:47:32;13.43;;;6.30;;
8831;SDS011;4452;50.756;4.472;2023-03-15T02:49:58;10.55;;;6.15;;
8831;SDS011;4452;50.756;4.472;2023-03-15T02:52:24;10.93;;;6.15;;
8831;SDS011;4452;50.756;4.472;2023-03-15T02:54:50;10.60;;;6.47;;
8831;SDS011;4452;50.756;4.472;2023-03-15T02:57:16;10.82;;;6.18;;
8831;SDS011;4452;50.756;4.472;2023-03-15T02:59:43;20.30;;;6.85;;
8831;SDS011;4452;50.756;4.472;2023-03-15T03:02:09;19.08;;;7.90;;
8831;SDS011;4452;50.756;4.472;2023-03-15T03:04:36;23.35;;;8.32;;
8831;SDS011;4452;50.756;4.472;2023-03-15T03:07:02;19.17;;;7.18;;
8831;SDS011;4452;50.756;4.472;2023-03-15T03:09:28;10.57;;;5.50;;
8831;SDS011;4452;50.756;4.472;2023-03-15T03:11:54;9.40;;;5.22;;
8831;SDS011;4452;50.756;4.472;2023-03-15T03:14:20;13.82;;;7.28;;
8831;SDS011;4452;50.756;4.472;2023-03-15T03:16:48;19.65;;;7.45;;
8831;SDS011;4452;50.756;4.472;2023-03-15T03:19:14;14.52;;;7.78;;
8831;SDS011;4452;50.756;4.472;2023-03-15T03:21:40;8.40;;;5.07;;
8831;SDS011;4452;50.756;4.472;2023-03-15T03:24:09;20.60;;;8.18;;
8831;SDS011;4452;50.756;4.472;2023-03-15T03:26:36;15.80;;;6.70;;
8831;SDS011;4452;50.756;4.472;2023-03-15T03:29:02;15.98;;;7.13;;
8831;SDS011;4452;50.756;4.472;2023-03-15T03:31:32;11.32;;;6.55;;
8831;SDS011;4452;50.756;4.472;2023-03-15T03:33:58;11.85;;;6.20;;
8831;SDS011;4452;50.756;4.472;2023-03-15T03:36:24;10.90;;;6.75;;
8831;SDS011;4452;50.756;4.472;2023-03-15T03:38:50;18.13;;;8.75;;
8831;SDS011;4452;50.756;4.472;2023-03-15T03:41:17;18.85;;;7.38;;
8831;SDS011;4452;50.756;4.472;2023-03-15T03:43:43;14.40;;;8.05;;
8831;SDS011;4452;50.756;4.472;2023-03-15T03:46:09;13.20;;;7.68;;
8831;SDS011;4452;50.756;4.472;2023-03-15T03:48:35;19.52;;;8.98;;
8831;SDS011;4452;50.756;4.472;2023-03-15T03:51:01;14.38;;;7.50;;
8831;SDS011;4452;50.756;4.472;2023-03-15T03:53:26;16.67;;;8.13;;
8831;SDS011;4452;50.756;4.472;2023-03-15T03:55:52;19.27;;;8.50;;
8831;SDS011;4452;50.756;4.472;2023-03-15T03:58:18;14.98;;;8.50;;
8831;SDS011;4452;50.756;4.472;2023-03-15T04:00:44;10.48;;;5.55;;
8831;SDS011;4452;50.756;4.472;2023-03-15T04:03:11;19.63;;;8.18;;
8831;SDS011;4452;50.756;4.472;2023-03-15T04:05:37;24.67;;;9.65;;
8831;SDS011;4452;50.756;4.472;2023-03-15T04:08:02;20.70;;;9.85;;
8831;SDS011;4452;50.756;4.472;2023-03-15T04:10:28;18.98;;;8.88;;
8831;SDS011;4452;50.756;4.472;2023-03-15T04:12:59;15.48;;;8.70;;
8831;SDS011;4452;50.756;4.472;2023-03-15T04:15:25;17.55;;;8.02;;
8831;SDS011;4452;50.756;4.472;2023-03-15T04:17:51;30.48;;;10.77;;
8831;SDS011;4452;50.756;4.472;2023-03-15T04:20:24;18.17;;;9.77;;
8831;SDS011;4452;50.756;4.472;2023-03-15T04:22:50;20.15;;;11.05;;
8831;SDS011;4452;50.756;4.472;2023-03-15T04:25:17;29.85;;;11.18;;
8831;SDS011;4452;50.756;4.472;2023-03-15T04:27:43;27.17;;;11.27;;
8831;SDS011;4452;50.756;4.472;2023-03-15T04:30:09;21.42;;;9.60;;
8831;SDS011;4452;50.756;4.472;2023-03-15T04:32:36;24.58;;;11.13;;
8831;SDS011;4452;50.756;4.472;2023-03-15T04:35:02;27.77;;;11.98;;
8831;SDS011;4452;50.756;4.472;2023-03-15T04:37:28;24.63;;;10.68;;
8831;SDS011;4452;50.756;4.472;2023-03-15T04:39:56;28.35;;;11.93;;
8831;SDS011;4452;50.756;4.472;2023-03-15T04:42:22;29.83;;;11.77;;
8831;SDS011;4452;50.756;4.472;2023-03-15T04:44:50;34.55;;;12.95;;
8831;SDS011;4452;50.756;4.472;2023-03-15T04:47:17;31.33;;;10.88;;
8831;SDS011;4452;50.756;4.472;2023-03-15T04:49:44;28.27;;;11.02;;
8831;SDS011;4452;50.756;4.472;2023-03-15T04:52:10;32.15;;;12.48;;
8831;SDS011;4452;50.756;4.472;2023-03-15T04:54:36;23.00;;;11.43;;
8831;SDS011;4452;50.756;4.472;2023-03-15T04:57:03;16.20;;;8.15;;
8831;SDS011;4452;50.756;4.472;2023-03-15T04:59:29;29.55;;;12.00;;
8831;SDS011;4452;50.756;4.472;2023-03-15T05:01:55;33.85;;;11.70;;
8831;SDS011;4452;50.756;4.472;2023-03-15T05:04:20;23.42;;;9.70;;
8831;SDS011;4452;50.756;4.472;2023-03-15T05:06:46;26.85;;;10.30;;
8831;SDS011;4452;50.756;4.472;2023-03-15T05:09:12;30.52;;;12.00;;
8831;SDS011;4452;50.756;4.472;2023-03-15T05:11:43;28.77;;;12.30;;
8831;SDS011;4452;50.756;4.472;2023-03-15T05:14:10;17.55;;;7.60;;
8831;SDS011;4452;50.756;4.472;2023-03-15T05:16:36;32.00;;;14.07;;
8831;SDS011;4452;50.756;4.472;2023-03-15T05:19:01;27.50;;;12.82;;
8831;SDS011;4452;50.756;4.472;2023-03-15T05:21:27;29.08;;;10.75;;
8831;SDS011;4452;50.756;4.472;2023-03-15T05:23:53;29.38;;;10.93;;
8831;SDS011;4452;50.756;4.472;2023-03-15T05:26:19;33.47;;;12.63;;
8831;SDS011;4452;50.756;4.472;2023-03-15T05:28:50;28.90;;;11.63;;
8831;SDS011;4452;50.756;4.472;2023-03-15T05:31:17;28.40;;;11.27;;
8831;SDS011;4452;50.756;4.472;2023-03-15T05:33:46;30.55;;;10.30;;
8831;SDS011;4452;50.756;4.472;2023-03-15T05:36:14;33.85;;;11.20;;
8831;SDS011;4452;50.756;4.472;2023-03-15T05:38:43;35.13;;;12.02;;
8831;SDS011;4452;50.756;4.472;2023-03-15T05:41:11;45.92;;;14.23;;
8831;SDS011;4452;50.756;4.472;2023-03-15T05:43:41;40.95;;;14.40;;
8831;SDS011;4452;50.756;4.472;2023-03-15T05:46:07;24.30;;;10.30;;
8831;SDS011;4452;50.756;4.472;2023-03-15T05:48:33;26.20;;;10.15;;
8831;SDS011;4452;50.756;4.472;2023-03-15T05:50:58;37.28;;;11.90;;
8831;SDS011;4452;50.756;4.472;2023-03-15T05:53:24;30.48;;;12.20;;
8831;SDS011;4452;50.756;4.472;2023-03-15T05:55:50;32.50;;;10.93;;
8831;SDS011;4452;50.756;4.472;2023-03-15T05:58:15;38.40;;;11.52;;
8831;SDS011;4452;50.756;4.472;2023-03-15T06:00:41;36.60;;;11.63;;
8831;SDS011;4452;50.756;4.472;2023-03-15T06:03:07;31.05;;;12.90;;
8831;SDS011;4452;50.756;4.472;2023-03-15T06:05:32;37.65;;;13.30;;
8831;SDS011;4452;50.756;4.472;2023-03-15T06:07:58;41.35;;;13.85;;
8831;SDS011;4452;50.756;4.472;2023-03-15T06:10:24;26.33;;;10.90;;
8831;SDS011;4452;50.756;4.472;2023-03-15T06:12:49;33.97;;;13.00;;
8831;SDS011;4452;50.756;4.472;2023-03-15T06:15:17;39.22;;;14.90;;
8831;SDS011;4452;50.756;4.472;2023-03-15T06:17:43;39.70;;;13.55;;
8831;SDS011;4452;50.756;4.472;2023-03-15T06:20:09;37.85;;;13.73;;
8831;SDS011;4452;50.756;4.472;2023-03-15T06:22:36;46.40;;;15.02;;
8831;SDS011;4452;50.756;4.472;2023-03-15T06:25:02;38.42;;;13.40;;
8831;SDS011;4452;50.756;4.472;2023-03-15T06:27:29;39.65;;;13.65;;
8831;SDS011;4452;50.756;4.472;2023-03-15T06:29:54;39.83;;;14.73;;
8831;SDS011;4452;50.756;4.472;2023-03-15T06:32:21;32.05;;;14.27;;
8831;SDS011;4452;50.756;4.472;2023-03-15T06:34:47;46.25;;;14.82;;
8831;SDS011;4452;50.756;4.472;2023-03-15T06:37:12;49.47;;;14.65;;
8831;SDS011;4452;50.756;4.472;2023-03-15T06:39:39;46.95;;;14.32;;
8831;SDS011;4452;50.756;4.472;2023-03-15T06:42:05;38.88;;;13.43;;
8831;SDS011;4452;50.756;4.472;2023-03-15T06:44:35;26.02;;;11.27;;
8831;SDS011;4452;50.756;4.472;2023-03-15T06:47:01;27.35;;;11.13;;
8831;SDS011;4452;50.756;4.472;2023-03-15T06:49:26;44.47;;;13.40;;
8831;SDS011;4452;50.756;4.472;2023-03-15T06:51:52;40.42;;;14.63;;
8831;SDS011;4452;50.756;4.472;2023-03-15T06:54:18;27.60;;;10.80;;
8831;SDS011;4452;50.756;4.472;2023-03-15T06:56:43;46.78;;;14.05;;
8831;SDS011;4452;50.756;4.472;2023-03-15T06:59:09;21.45;;;10.43;;
8831;SDS011;4452;50.756;4.472;2023-03-15T07:01:35;39.80;;;13.80;;
8831;SDS011;4452;50.756;4.472;2023-03-15T07:04:01;35.85;;;12.50;;
8831;SDS011;4452;50.756;4.472;2023-03-15T07:06:26;19.23;;;8.45;;
8831;SDS011;4452;50.756;4.472;2023-03-15T07:08:53;27.58;;;8.88;;
8831;SDS011;4452;50.756;4.472;2023-03-15T07:11:19;19.30;;;7.50;;
8831;SDS011;4452;50.756;4.472;2023-03-15T07:13:45;35.03;;;12.55;;
8831;SDS011;4452;50.756;4.472;2023-03-15T07:16:10;37.80;;;12.48;;
8831;SDS011;4452;50.756;4.472;2023-03-15T07:18:36;35.90;;;11.85;;
8831;SDS011;4452;50.756;4.472;2023-03-15T07:21:03;27.40;;;9.75;;
8831;SDS011;4452;50.756;4.472;2023-03-15T07:23:29;34.15;;;10.50;;
8831;SDS011;4452;50.756;4.472;2023-03-15T07:25:55;25.70;;;9.80;;
8831;SDS011;4452;50.756;4.472;2023-03-15T07:28:22;30.85;;;10.30;;
8831;SDS011;4452;50.756;4.472;2023-03-15T07:30:55;32.25;;;11.55;;
8831;SDS011;4452;50.756;4.472;2023-03-15T07:33:26;35.78;;;10.73;;
8831;SDS011;4452;50.756;4.472;2023-03-15T07:35:52;7.22;;;4.78;;
8831;SDS011;4452;50.756;4.472;2023-03-15T07:38:19;28.52;;;11.80;;
8831;SDS011;4452;50.756;4.472;2023-03-15T07:40:45;29.92;;;9.85;;
8831;SDS011;4452;50.756;4.472;2023-03-15T07:43:11;24.33;;;10.90;;
8831;SDS011;4452;50.756;4.472;2023-03-15T07:45:37;22.98;;;10.77;;
8831;SDS011;4452;50.756;4.472;2023-03-15T07:48:02;30.20;;;11.98;;
8831;SDS011;4452;50.756;4.472;2023-03-15T07:50:28;24.25;;;9.73;;
8831;SDS011;4452;50.756;4.472;2023-03-15T07:52:54;27.85;;;11.90;;
8831;SDS011;4452;50.756;4.472;2023-03-15T07:55:19;29.02;;;11.15;;
8831;SDS011;4452;50.756;4.472;2023-03-15T07:57:45;22.45;;;9.05;;
8831;SDS011;4452;50.756;4.472;2023-03-15T08:00:10;27.48;;;12.23;;
8831;SDS011;4452;50.756;4.472;2023-03-15T08:02:38;20.23;;;9.85;;
8831;SDS011;4452;50.756;4.472;2023-03-15T08:05:04;29.85;;;11.55;;
8831;SDS011;4452;50.756;4.472;2023-03-15T08:07:30;20.27;;;10.30;;
8831;SDS011;4452;50.756;4.472;2023-03-15T08:09:55;26.58;;;11.93;;
8831;SDS011;4452;50.756;4.472;2023-03-15T08:12:25;27.83;;;11.70;;
8831;SDS011;4452;50.756;4.472;2023-03-15T08:14:51;30.80;;;12.57;;
8831;SDS011;4452;50.756;4.472;2023-03-15T08:17:17;26.30;;;11.38;;
8831;SDS011;4452;50.756;4.472;2023-03-15T08:19:43;30.38;;;12.40;;
8831;SDS011;4452;50.756;4.472;2023-03-15T08:22:09;23.63;;;11.95;;
8831;SDS011;4452;50.756;4.472;2023-03-15T08:24:35;23.30;;;11.15;;
8831;SDS011;4452;50.756;4.472;2023-03-15T08:27:01;26.30;;;10.93;;
8831;SDS011;4452;50.756;4.472;2023-03-15T08:29:27;28.25;;;11.48;;
8831;SDS011;4452;50.756;4.472;2023-03-15T08:31:53;28.40;;;13.20;;
8831;SDS011;4452;50.756;4.472;2023-03-15T08:34:19;23.13;;;11.98;;
8831;SDS011;4452;50.756;4.472;2023-03-15T08:36:46;25.95;;;12.85;;
8831;SDS011;4452;50.756;4.472;2023-03-15T08:39:12;23.48;;;11.32;;
8831;SDS011;4452;50.756;4.472;2023-03-15T08:41:38;23.75;;;8.75;;
8831;SDS011;4452;50.756;4.472;2023-03-15T08:44:03;18.20;;;8.43;;
8831;SDS011;4452;50.756;4.472;2023-03-15T08:46:29;12.88;;;8.13;;
8831;SDS011;4452;50.756;4.472;2023-03-15T08:48:56;12.45;;;8.35;;
8831;SDS011;4452;50.756;4.472;2023-03-15T08:51:22;15.82;;;8.23;;
8831;SDS011;4452;50.756;4.472;2023-03-15T08:53:49;12.80;;;7.80;;
8831;SDS011;4452;50.756;4.472;2023-03-15T08:56:16;12.52;;;4.78;;
8831;SDS011;4452;50.756;4.472;2023-03-15T08:58:41;8.27;;;4.47;;
8831;SDS011;4452;50.756;4.472;2023-03-15T09:01:09;12.35;;;6.00;;
8831;SDS011;4452;50.756;4.472;2023-03-15T09:03:36;9.23;;;5.22;;
8831;SDS011;4452;50.756;4.472;2023-03-15T09:06:01;10.07;;;5.55;;
8831;SDS011;4452;50.756;4.472;2023-03-15T09:08:27;9.25;;;5.90;;
8831;SDS011;4452;50.756;4.472;2023-03-15T09:10:56;10.18;;;6.43;;
8831;SDS011;4452;50.756;4.472;2023-03-15T09:13:22;12.57;;;6.05;;
8831;SDS011;4452;50.756;4.472;2023-03-15T09:15:52;11.55;;;5.70;;
8831;SDS011;4452;50.756;4.472;2023-03-15T09:18:19;12.68;;;5.32;;
8831;SDS011;4452;50.756;4.472;2023-03-15T09:20:45;9.20;;;5.22;;
8831;SDS011;4452;50.756;4.472;2023-03-15T09:23:12;8.52;;;4.68;;
8831;SDS011;4452;50.756;4.472;2023-03-15T09:25:38;10.38;;;4.32;;
8831;SDS011;4452;50.756;4.472;2023-03-15T09:28:04;5.28;;;3.97;;
8831;SDS011;4452;50.756;4.472;2023-03-15T09:30:32;6.50;;;3.95;;
8831;SDS011;4452;50.756;4.472;2023-03-15T09:32:58;5.78;;;4.15;;
8831;SDS011;4452;50.756;4.472;2023-03-15T09:35:24;12.52;;;4.38;;
8831;SDS011;4452;50.756;4.472;2023-03-15T09:37:50;8.75;;;5.15;;
8831;SDS011;4452;50.756;4.472;2023-03-15T09:40:21;5.72;;;3.58;;
8831;SDS011;4452;50.756;4.472;2023-03-15T09:49:25;7.60;;;4.35;;
8831;SDS011;4452;50.756;4.472;2023-03-15T09:54:13;8.35;;;4.80;;
8831;SDS011;4452;50.756;4.472;2023-03-15T09:56:53;7.82;;;3.80;;
8831;SDS011;4452;50.756;4.472;2023-03-15T09:59:25;6.40;;;4.20;;
8831;SDS011;4452;50.756;4.472;2023-03-15T10:01:57;7.07;;;4.80;;
8831;SDS011;4452;50.756;4.472;2023-03-15T10:06:58;5.95;;;5.07;;
8831;SDS011;4452;50.756;4.472;2023-03-15T10:09:27;9.07;;;4.70;;
8831;SDS011;4452;50.756;4.472;2023-03-15T10:16:58;7.53;;;4.63;;
8831;SDS011;4452;50.756;4.472;2023-03-15T10:22:00;6.60;;;5.13;;
8831;SDS011;4452;50.756;4.472;2023-03-15T10:27:46;5.85;;;4.63;;
8831;SDS011;4452;50.756;4.472;2023-03-15T10:30:35;4.72;;;4.30;;
8831;SDS011;4452;50.756;4.472;2023-03-15T10:35:30;6.13;;;4.10;;
8831;SDS011;4452;50.756;4.472;2023-03-15T10:37:57;7.18;;;4.20;;
8831;SDS011;4452;50.756;4.472;2023-03-15T10:40:39;5.25;;;3.75;;
8831;SDS011;4452;50.756;4.472;2023-03-15T10:45:43;5.88;;;3.70;;
8831;SDS011;4452;50.756;4.472;2023-03-15T10:48:11;6.40;;;3.72;;
8831;SDS011;4452;50.756;4.472;2023-03-15T10:50:37;6.32;;;3.60;;
8831;SDS011;4452;50.756;4.472;2023-03-15T10:53:15;5.97;;;3.88;;
8831;SDS011;4452;50.756;4.472;2023-03-15T10:55:44;6.20;;;3.70;;
8831;SDS011;4452;50.756;4.472;2023-03-15T10:58:18;4.63;;;3.30;;
8831;SDS011;4452;50.756;4.472;2023-03-15T11:00:53;6.05;;;3.45;;
8831;SDS011;4452;50.756;4.472;2023-03-15T11:03:34;6.55;;;3.70;;
8831;SDS011;4452;50.756;4.472;2023-03-15T11:06:01;4.00;;;3.47;;
8831;SDS011;4452;50.756;4.472;2023-03-15T11:08:38;5.80;;;3.65;;
8831;SDS011;4452;50.756;4.472;2023-03-15T11:11:06;5.47;;;3.83;;
8831;SDS011;4452;50.756;4.472;2023-03-15T11:13:33;8.85;;;4.28;;
8831;SDS011;4452;50.756;4.472;2023-03-15T11:16:02;10.57;;;4.05;;
8831;SDS011;4452;50.756;4.472;2023-03-15T11:18:33;5.78;;;3.53;;
8831;SDS011;4452;50.756;4.472;2023-03-15T11:21:06;4.53;;;3.28;;
8831;SDS011;4452;50.756;4.472;2023-03-15T11:23:37;5.25;;;3.90;;
8831;SDS011;4452;50.756;4.472;2023-03-15T11:26:05;4.45;;;3.40;;
8831;SDS011;4452;50.756;4.472;2023-03-15T11:28:42;4.55;;;3.15;;
8831;SDS011;4452;50.756;4.472;2023-03-15T11:31:11;4.60;;;3.13;;
8831;SDS011;4452;50.756;4.472;2023-03-15T11:36:18;8.13;;;3.50;;
8831;SDS011;4452;50.756;4.472;2023-03-15T11:38:49;4.05;;;2.92;;
8831;SDS011;4452;50.756;4.472;2023-03-15T11:43:48;4.70;;;2.90;;
8831;SDS011;4452;50.756;4.472;2023-03-15T11:46:28;3.85;;;2.90;;
8831;SDS011;4452;50.756;4.472;2023-03-15T11:52:00;3.10;;;2.80;;
8831;SDS011;4452;50.756;4.472;2023-03-15T11:54:30;4.70;;;3.08;;
8831;SDS011;4452;50.756;4.472;2023-03-15T11:57:03;3.63;;;3.17;;
8831;SDS011;4452;50.756;4.472;2023-03-15T11:59:32;3.17;;;2.92;;
8831;SDS011;4452;50.756;4.472;2023-03-15T12:07:34;5.40;;;3.17;;
8831;SDS011;4452;50.756;4.472;2023-03-15T12:15:13;5.38;;;3.53;;
8831;SDS011;4452;50.756;4.472;2023-03-15T12:17:49;4.93;;;2.70;;
8831;SDS011;4452;50.756;4.472;2023-03-15T12:28:09;3.95;;;2.70;;
8831;SDS011;4452;50.756;4.472;2023-03-15T12:30:44;3.50;;;2.65;;
8831;SDS011;4452;50.756;4.472;2023-03-15T12:33:19;2.80;;;2.63;;
8831;SDS011;4452;50.756;4.472;2023-03-15T12:35:46;2.42;;;2.30;;
8831;SDS011;4452;50.756;4.472;2023-03-15T12:38:17;3.53;;;2.78;;
8831;SDS011;4452;50.756;4.472;2023-03-15T12:40:48;3.90;;;2.60;;
8831;SDS011;4452;50.756;4.472;2023-03-15T12:43:14;4.18;;;3.10;;
8831;SDS011;4452;50.756;4.472;2023-03-15T12:45:58;2.90;;;2.70;;
8831;SDS011;4452;50.756;4.472;2023-03-15T12:48:24;4.82;;;2.50;;
8831;SDS011;4452;50.756;4.472;2023-03-15T12:50:52;4.95;;;2.50;;
8831;SDS011;4452;50.756;4.472;2023-03-15T12:58:42;4.05;;;2.42;;
8831;SDS011;4452;50.756;4.472;2023-03-15T13:01:17;2.25;;;2.15;;
8831;SDS011;4452;50.756;4.472;2023-03-15T13:09:00;2.10;;;2.00;;
8831;SDS011;4452;50.756;4.472;2023-03-15T13:11:48;3.83;;;2.47;;
8831;SDS011;4452;50.756;4.472;2023-03-15T13:14:22;2.85;;;1.90;;
8831;SDS011;4452;50.756;4.472;2023-03-15T13:23:05;2.20;;;2.00;;
8831;SDS011;4452;50.756;4.472;2023-03-15T13:28:18;2.75;;;2.25;;
8831;SDS011;4452;50.756;4.472;2023-03-15T13:30:48;2.83;;;2.63;;
8831;SDS011;4452;50.756;4.472;2023-03-15T13:33:25;2.83;;;2.30;;
8831;SDS011;4452;50.756;4.472;2023-03-15T13:40:58;4.43;;;2.60;;
8831;SDS011;4452;50.756;4.472;2023-03-15T13:43:36;4.22;;;2.40;;
8831;SDS011;4452;50.756;4.472;2023-03-15T13:46:03;5.15;;;2.58;;
8831;SDS011;4452;50.756;4.472;2023-03-15T13:48:35;3.50;;;2.75;;
8831;SDS011;4452;50.756;4.472;2023-03-15T13:51:22;5.60;;;2.60;;
8831;SDS011;4452;50.756;4.472;2023-03-15T13:53:52;3.22;;;2.40;;
8831;SDS011;4452;50.756;4.472;2023-03-15T13:56:28;5.30;;;2.63;;
8831;SDS011;4452;50.756;4.472;2023-03-15T13:58:56;3.40;;;2.67;;
8831;SDS011;4452;50.756;4.472;2023-03-15T14:01:23;3.20;;;2.47;;
8831;SDS011;4452;50.756;4.472;2023-03-15T14:03:57;3.50;;;2.40;;
8831;SDS011;4452;50.756;4.472;2023-03-15T14:06:39;3.47;;;2.45;;
8831;SDS011;4452;50.756;4.472;2023-03-15T14:09:09;3.00;;;2.17;;
8831;SDS011;4452;50.756;4.472;2023-03-15T14:11:41;2.38;;;2.28;;
8831;SDS011;4452;50.756;4.472;2023-03-15T14:16:51;2.60;;;2.38;;
8831;SDS011;4452;50.756;4.472;2023-03-15T14:19:18;2.25;;;2.15;;
8831;SDS011;4452;50.756;4.472;2023-03-15T14:21:52;2.05;;;1.98;;
8831;SDS011;4452;50.756;4.472;2023-03-15T14:24:28;2.58;;;2.38;;
8831;SDS011;4452;50.756;4.472;2023-03-15T14:27:00;3.63;;;2.50;;
8831;SDS011;4452;50.756;4.472;2023-03-15T14:29:31;2.80;;;2.50;;
8831;SDS011;4452;50.756;4.472;2023-03-15T14:32:02;3.63;;;2.40;;
8831;SDS011;4452;50.756;4.472;2023-03-15T14:36:58;6.07;;;2.70;;
8831;SDS011;4452;50.756;4.472;2023-03-15T14:42:05;2.47;;;2.28;;
8831;SDS011;4452;50.756;4.472;2023-03-15T14:44:34;2.17;;;1.92;;
8831;SDS011;4452;50.756;4.472;2023-03-15T14:46:59;2.40;;;2.15;;
8831;SDS011;4452;50.756;4.472;2023-03-15T14:49:27;2.75;;;2.40;;
8831;SDS011;4452;50.756;4.472;2023-03-15T14:51:58;2.65;;;2.42;;
8831;SDS011;4452;50.756;4.472;2023-03-15T14:56:53;2.90;;;2.65;;
8831;SDS011;4452;50.756;4.472;2023-03-15T14:59:18;3.78;;;2.65;;
8831;SDS011;4452;50.756;4.472;2023-03-15T15:01:54;3.70;;;2.50;;
8831;SDS011;4452;50.756;4.472;2023-03-15T15:04:22;8.70;;;2.80;;
8831;SDS011;4452;50.756;4.472;2023-03-15T15:06:52;2.95;;;2.50;;
8831;SDS011;4452;50.756;4.472;2023-03-15T15:09:23;2.70;;;2.50;;
8831;SDS011;4452;50.756;4.472;2023-03-15T15:11:51;4.30;;;2.83;;
8831;SDS011;4452;50.756;4.472;2023-03-15T15:14:17;4.00;;;2.85;;
8831;SDS011;4452;50.756;4.472;2023-03-15T15:16:45;4.63;;;3.03;;
8831;SDS011;4452;50.756;4.472;2023-03-15T15:19:12;4.55;;;2.80;;
8831;SDS011;4452;50.756;4.472;2023-03-15T15:21:38;3.60;;;3.10;;
8831;SDS011;4452;50.756;4.472;2023-03-15T15:24:08;3.33;;;2.97;;
8831;SDS011;4452;50.756;4.472;2023-03-15T15:26:37;5.93;;;3.00;;
8831;SDS011;4452;50.756;4.472;2023-03-15T15:29:03;5.97;;;2.70;;
8831;SDS011;4452;50.756;4.472;2023-03-15T15:31:28;4.50;;;2.70;;
8831;SDS011;4452;50.756;4.472;2023-03-15T15:33:58;3.78;;;2.65;;
8831;SDS011;4452;50.756;4.472;2023-03-15T15:36:33;3.83;;;2.70;;
8831;SDS011;4452;50.756;4.472;2023-03-15T15:39:02;3.78;;;2.80;;
8831;SDS011;4452;50.756;4.472;2023-03-15T15:41:34;3.47;;;2.63;;
8831;SDS011;4452;50.756;4.472;2023-03-15T15:44:00;3.22;;;2.88;;
8831;SDS011;4452;50.756;4.472;2023-03-15T15:46:28;3.53;;;2.80;;
8831;SDS011;4452;50.756;4.472;2023-03-15T15:48:54;5.45;;;2.90;;
8831;SDS011;4452;50.756;4.472;2023-03-15T15:53:59;2.97;;;2.78;;
8831;SDS011;4452;50.756;4.472;2023-03-15T15:56:30;3.10;;;2.90;;
8831;SDS011;4452;50.756;4.472;2023-03-15T15:58:58;3.90;;;3.00;;
8831;SDS011;4452;50.756;4.472;2023-03-15T16:01:28;3.95;;;3.10;;
8831;SDS011;4452;50.756;4.472;2023-03-15T16:03:54;3.30;;;2.95;;
8831;SDS011;4452;50.756;4.472;2023-03-15T16:06:20;5.75;;;3.00;;
8831;SDS011;4452;50.756;4.472;2023-03-15T16:08:46;4.22;;;3.15;;
8831;SDS011;4452;50.756;4.472;2023-03-15T16:11:15;5.20;;;2.80;;
8831;SDS011;4452;50.756;4.472;2023-03-15T16:13:42;3.15;;;2.80;;
8831;SDS011;4452;50.756;4.472;2023-03-15T16:16:12;12.15;;;3.40;;
8831;SDS011;4452;50.756;4.472;2023-03-15T16:18:40;3.25;;;3.05;;
8831;SDS011;4452;50.756;4.472;2023-03-15T16:21:08;3.20;;;2.90;;
8831;SDS011;4452;50.756;4.472;2023-03-15T16:24:20;4.45;;;2.80;;
8831;SDS011;4452;50.756;4.472;2023-03-15T16:29:21;2.78;;;2.63;;
8831;SDS011;4452;50.756;4.472;2023-03-15T16:31:48;3.47;;;3.05;;
8831;SDS011;4452;50.756;4.472;2023-03-15T16:34:15;2.85;;;2.53;;
8831;SDS011;4452;50.756;4.472;2023-03-15T16:36:42;2.90;;;2.70;;
8831;SDS011;4452;50.756;4.472;2023-03-15T16:39:11;3.97;;;2.95;;
8831;SDS011;4452;50.756;4.472;2023-03-15T16:41:39;3.10;;;2.90;;
8831;SDS011;4452;50.756;4.472;2023-03-15T16:44:11;3.22;;;2.88;;
8831;SDS011;4452;50.756;4.472;2023-03-15T16:46:39;6.18;;;2.60;;
8831;SDS011;4452;50.756;4.472;2023-03-15T16:49:05;3.42;;;2.92;;
8831;SDS011;4452;50.756;4.472;2023-03-15T16:51:31;2.70;;;2.50;;
8831;SDS011;4452;50.756;4.472;2023-03-15T16:53:57;3.65;;;2.85;;